createdAt,value
2022-10-22T00:00:25.671Z,14.48
2022-10-22T00:05:25.616Z,14.54
2022-10-22T00:10:25.544Z,14.55
2022-10-22T00:15:25.487Z,14.54
2022-10-22T00:20:25.414Z,14.54
2022-10-22T00:25:25.359Z,14.51
2022-10-22T00:30:25.286Z,14.51
2022-10-22T00:35:25.232Z,14.45
2022-10-22T00:40:25.160Z,14.45
2022-10-22T00:45:25.104Z,14.44
2022-10-22T00:50:25.031Z,14.41
2022-10-22T00:55:24.976Z,14.37
2022-10-22T01:00:24.902Z,14.33
2022-10-22T01:05:24.846Z,14.32
2022-10-22T01:10:24.772Z,14.28
2022-10-22T01:15:24.724Z,14.23
2022-10-22T01:20:24.644Z,14.17
2022-10-22T01:25:24.588Z,14.12
2022-10-22T01:30:24.516Z,14.10
2022-10-22T01:35:24.547Z,14.04
2022-10-22T01:40:24.386Z,14.02
2022-10-22T01:45:24.329Z,14.02
2022-10-22T01:50:24.257Z,13.99
2022-10-22T01:55:24.200Z,13.98
2022-10-22T02:00:24.288Z,13.96
2022-10-22T02:05:24.068Z,13.95
2022-10-22T02:10:24.001Z,13.98
2022-10-22T02:15:23.937Z,13.98
2022-10-22T02:20:23.863Z,13.96
2022-10-22T02:25:23.810Z,13.91
2022-10-22T02:30:23.734Z,13.80
2022-10-22T02:35:23.675Z,13.74
2022-10-22T02:40:23.604Z,13.74
2022-10-22T02:45:23.545Z,13.74
2022-10-22T02:50:23.476Z,13.77
2022-10-22T02:55:23.416Z,13.78
2022-10-22T03:00:23.348Z,13.80
2022-10-22T03:05:23.290Z,13.74
2022-10-22T03:10:23.213Z,13.70
2022-10-22T03:15:23.217Z,13.67
2022-10-22T03:20:23.083Z,13.70
2022-10-22T03:25:23.022Z,13.73
2022-10-22T03:30:22.949Z,13.76
2022-10-22T03:35:22.896Z,13.74
2022-10-22T03:40:22.819Z,13.70
2022-10-22T03:45:22.763Z,13.74
2022-10-22T03:50:22.688Z,13.73
2022-10-22T03:55:22.641Z,13.67
2022-10-22T04:00:22.568Z,13.62
2022-10-22T04:05:22.507Z,13.56
2022-10-22T04:10:22.438Z,13.55
2022-10-22T04:15:22.378Z,13.53
2022-10-22T04:20:22.303Z,13.55
2022-10-22T04:25:22.244Z,13.56
2022-10-22T04:30:22.172Z,13.58
2022-10-22T04:35:22.163Z,13.59
2022-10-22T04:40:22.043Z,13.62
2022-10-22T04:45:21.982Z,13.64
2022-10-22T04:50:21.962Z,13.64
2022-10-22T04:55:21.885Z,13.69
2022-10-22T05:00:21.782Z,13.71
2022-10-22T05:05:21.726Z,13.77
2022-10-22T05:10:21.652Z,13.85
2022-10-22T05:15:21.598Z,13.96
2022-10-22T05:20:21.522Z,14.04
2022-10-22T05:25:21.464Z,14.12
2022-10-22T05:30:21.391Z,14.15
2022-10-22T05:35:21.333Z,14.17
2022-10-22T05:40:30.385Z,14.20
2022-10-22T05:45:21.203Z,14.20
2022-10-22T05:50:21.133Z,14.22
2022-10-22T05:55:21.077Z,14.33
2022-10-22T06:00:21.011Z,14.37
2022-10-22T06:05:20.949Z,14.37
2022-10-22T06:10:20.891Z,14.41
2022-10-22T06:15:20.823Z,14.41
2022-10-22T06:20:20.752Z,14.41
2022-10-22T06:25:20.693Z,14.44
2022-10-22T06:30:20.624Z,14.47
2022-10-22T06:35:20.565Z,14.53
2022-10-22T06:40:20.493Z,14.59
2022-10-22T06:45:20.438Z,14.66
2022-10-22T06:50:20.365Z,14.72
2022-10-22T06:55:20.309Z,14.77
2022-10-22T07:00:20.288Z,14.84
2022-10-22T07:05:20.200Z,14.88
2022-10-22T07:10:20.503Z,14.95
2022-10-22T07:15:20.051Z,15.03
2022-10-22T07:20:19.983Z,15.09
2022-10-22T07:25:19.927Z,15.16
2022-10-22T07:30:19.855Z,15.17
2022-10-22T07:35:19.809Z,15.17
2022-10-22T07:40:19.730Z,15.16
2022-10-22T07:45:19.669Z,15.16
2022-10-22T07:50:19.597Z,15.26
2022-10-22T07:55:19.540Z,15.28
2022-10-22T08:00:21.766Z,15.28
2022-10-22T08:05:19.411Z,15.27
2022-10-22T08:10:19.340Z,15.28
2022-10-22T08:15:19.285Z,15.32
2022-10-22T08:20:19.211Z,15.34
2022-10-22T08:25:19.153Z,15.34
2022-10-22T08:30:19.082Z,15.30
2022-10-22T08:35:19.027Z,15.27
2022-10-22T08:40:19.066Z,15.32
2022-10-22T08:45:18.893Z,15.45
2022-10-22T08:50:18.845Z,15.59
2022-10-22T08:55:18.766Z,15.76
2022-10-22T09:00:18.755Z,16.05
2022-10-22T09:05:18.633Z,16.41
2022-10-22T09:10:18.648Z,17.73
2022-10-22T09:15:18.500Z,20.07
2022-10-22T09:20:18.501Z,22.56
2022-10-22T09:25:18.369Z,23.98
2022-10-22T09:30:18.349Z,23.17
2022-10-22T09:35:18.240Z,22.80
2022-10-22T09:40:18.231Z,25.00
2022-10-22T09:45:18.109Z,25.99
2022-10-22T09:50:18.052Z,26.77
2022-10-22T09:55:17.980Z,27.27
2022-10-22T10:00:17.909Z,27.18
2022-10-22T10:05:17.854Z,27.40
2022-10-22T10:10:17.783Z,27.74
2022-10-22T10:15:17.727Z,28.00
2022-10-22T10:20:17.659Z,27.79
2022-10-22T10:25:17.604Z,28.04
2022-10-22T10:30:17.536Z,27.99
2022-10-22T10:35:17.481Z,27.57
2022-10-22T10:40:17.408Z,27.39
2022-10-22T10:45:17.353Z,27.35
2022-10-22T10:50:17.281Z,27.27
2022-10-22T10:55:17.228Z,27.32
2022-10-22T11:00:17.164Z,27.44
2022-10-22T11:05:17.112Z,27.35
2022-10-22T11:10:17.033Z,26.92
2022-10-22T11:15:16.972Z,26.24
2022-10-22T11:20:16.908Z,25.98
2022-10-22T11:25:16.849Z,25.73
2022-10-22T11:30:16.796Z,25.50
2022-10-22T11:35:16.721Z,25.09
2022-10-22T11:40:16.650Z,24.73
2022-10-22T11:45:16.594Z,24.45
2022-10-22T11:50:16.523Z,23.85
2022-10-22T11:55:16.467Z,23.55
2022-10-22T12:00:16.389Z,23.21
2022-10-22T12:05:16.332Z,22.66
2022-10-22T12:10:18.376Z,22.22
2022-10-22T12:15:16.203Z,22.14
2022-10-22T12:20:16.135Z,21.92
2022-10-22T12:25:16.073Z,21.62
2022-10-22T12:30:16.000Z,21.50
2022-10-22T12:35:15.942Z,21.57
2022-10-22T12:40:15.870Z,21.37
2022-10-22T12:45:15.812Z,21.17
2022-10-22T12:50:15.739Z,20.98
2022-10-22T12:55:15.681Z,20.79
2022-10-22T13:00:15.611Z,20.65
2022-10-22T13:05:15.551Z,20.55
2022-10-22T13:10:15.481Z,20.54
2022-10-22T13:15:15.426Z,20.46
2022-10-22T13:20:15.350Z,20.28
2022-10-22T13:25:15.293Z,20.10
2022-10-22T13:30:15.221Z,19.81
2022-10-22T13:35:15.161Z,19.58
2022-10-22T13:40:15.091Z,19.43
2022-10-22T13:45:15.027Z,19.44
2022-10-22T13:50:14.970Z,19.47
2022-10-22T13:55:14.895Z,19.51
2022-10-22T14:00:14.818Z,19.58
2022-10-22T14:05:14.758Z,19.58
2022-10-22T14:10:14.683Z,19.50
2022-10-22T14:15:14.628Z,19.43
2022-10-22T14:20:14.550Z,19.39
2022-10-22T14:25:14.490Z,19.33
2022-10-22T14:30:14.420Z,19.28
2022-10-22T14:35:14.358Z,19.18
2022-10-22T14:40:14.291Z,19.15
2022-10-22T14:45:14.234Z,19.13
2022-10-22T14:50:14.167Z,19.08
2022-10-22T14:55:14.105Z,19.03
2022-10-22T15:00:14.033Z,18.99
2022-10-22T15:05:13.978Z,18.84
2022-10-22T15:10:13.906Z,18.71
2022-10-22T15:15:13.850Z,18.52
2022-10-22T15:20:13.778Z,18.35
2022-10-22T15:25:13.724Z,18.25
2022-10-22T15:30:13.649Z,18.14
2022-10-22T15:35:13.591Z,18.04
2022-10-22T15:40:13.529Z,17.93
2022-10-22T15:45:13.458Z,17.81
2022-10-22T15:50:13.384Z,17.71
2022-10-22T16:00:13.255Z,17.54
2022-10-22T16:05:13.196Z,17.42
2022-10-22T16:10:13.124Z,17.29
2022-10-22T16:15:13.063Z,17.16
2022-10-22T16:25:12.930Z,16.88
2022-10-22T16:30:12.858Z,16.77
2022-10-22T16:35:12.799Z,16.68
2022-10-22T16:40:12.724Z,16.64
2022-10-22T16:45:12.729Z,16.59
2022-10-22T16:50:12.623Z,16.77
2022-10-22T16:55:12.535Z,16.94
2022-10-22T17:00:12.463Z,17.04
2022-10-22T17:05:12.405Z,17.11
2022-10-22T17:10:12.405Z,17.06
2022-10-22T17:15:12.287Z,16.94
2022-10-22T17:20:12.201Z,16.78
2022-10-22T17:25:12.143Z,16.59
2022-10-22T17:30:12.076Z,16.42
2022-10-22T17:35:12.013Z,16.30
2022-10-22T17:40:11.939Z,16.20
2022-10-22T17:45:11.881Z,16.10
2022-10-22T17:50:11.808Z,16.02
2022-10-22T17:55:11.754Z,15.92
2022-10-22T18:00:11.722Z,15.84
2022-10-22T18:05:11.622Z,15.76
2022-10-22T18:10:11.547Z,15.68
2022-10-22T18:15:11.493Z,15.64
2022-10-22T18:20:11.420Z,15.70
2022-10-22T18:25:11.360Z,15.77
2022-10-22T18:30:11.287Z,15.79
2022-10-22T18:35:11.229Z,15.77
2022-10-22T18:40:14.453Z,15.65
2022-10-22T18:45:11.095Z,15.58
2022-10-22T18:50:11.022Z,15.49
2022-10-22T18:55:10.960Z,15.36
2022-10-22T19:00:10.887Z,15.32
2022-10-22T19:05:10.829Z,15.26
2022-10-22T19:10:10.752Z,15.20
2022-10-22T19:15:10.690Z,15.14
2022-10-22T19:20:10.619Z,15.05
2022-10-22T19:25:12.063Z,14.98
2022-10-22T19:30:10.484Z,14.88
2022-10-22T19:35:10.426Z,14.81
2022-10-22T19:40:10.442Z,14.78
2022-10-22T19:45:10.293Z,14.70
2022-10-22T19:50:10.230Z,14.68
2022-10-22T19:55:10.151Z,14.66
2022-10-22T20:00:10.091Z,14.65
2022-10-22T20:05:10.107Z,14.68
2022-10-22T20:10:09.958Z,14.66
2022-10-22T20:15:09.884Z,14.63
2022-10-22T20:20:09.827Z,14.59
2022-10-22T20:25:09.754Z,14.55
2022-10-22T20:30:09.732Z,14.54
2022-10-22T20:35:09.621Z,14.48
2022-10-22T20:40:09.565Z,14.51
2022-10-22T20:45:09.492Z,14.55
2022-10-22T20:50:09.436Z,14.63
2022-10-22T20:55:09.432Z,14.66
2022-10-22T21:00:09.308Z,14.65
2022-10-22T21:05:09.237Z,14.63
2022-10-22T21:10:09.179Z,14.58
2022-10-22T21:15:11.759Z,14.54
2022-10-22T21:25:08.975Z,14.45
2022-10-22T21:30:08.919Z,14.37
2022-10-22T21:35:08.849Z,14.26
2022-10-22T21:40:08.788Z,14.17
2022-10-22T21:45:12.406Z,14.07
2022-10-22T21:50:08.659Z,13.94
2022-10-22T21:55:08.588Z,13.82
2022-10-22T22:00:08.532Z,13.71
2022-10-22T22:05:08.459Z,13.66
2022-10-22T22:10:08.406Z,13.59
2022-10-22T22:15:08.333Z,13.49
2022-10-22T22:20:08.275Z,13.40
2022-10-22T22:25:08.203Z,13.36
2022-10-22T22:30:08.146Z,13.28
2022-10-22T22:35:08.084Z,13.23
2022-10-22T22:40:08.018Z,13.25
2022-10-22T22:45:07.947Z,13.27
2022-10-22T22:50:07.889Z,13.31
2022-10-22T22:55:07.814Z,13.34
2022-10-22T23:00:07.755Z,13.36
2022-10-22T23:05:07.682Z,13.41
2022-10-22T23:10:07.626Z,13.45
2022-10-22T23:15:07.553Z,13.43
2022-10-22T23:20:07.494Z,13.37
2022-10-22T23:25:07.424Z,13.34
2022-10-22T23:30:07.365Z,13.37
2022-10-22T23:35:07.290Z,13.40
2022-10-22T23:40:07.233Z,13.41
2022-10-22T23:45:07.158Z,13.40
2022-10-22T23:50:07.101Z,13.41
2022-10-22T23:55:07.032Z,13.38
